sensor_id;sensor_type;location;lat;lon;timestamp;temperature;humidity
48535;DHT22;34323;52.022;5.686;2023-05-15T00:00:00;18.60;99.90
48535;DHT22;34323;52.022;5.686;2023-05-15T00:02:26;18.30;99.90
48535;DHT22;34323;52.022;5.686;2023-05-15T00:04:52;18.40;99.90
48535;DHT22;34323;52.022;5.686;2023-05-15T00:07:18;18.60;99.90
48535;DHT22;34323;52.022;5.686;2023-05-15T00:09:43;18.60;99.90
48535;DHT22;34323;52.022;5.686;2023-05-15T00:12:09;18.40;99.90
48535;DHT22;34323;52.022;5.686;2023-05-15T00:14:34;18.50;99.90
48535;DHT22;34323;52.022;5.686;2023-05-15T00:17:00;18.50;99.90
48535;DHT22;34323;52.022;5.686;2023-05-15T00:19:25;18.60;99.90
48535;DHT22;34323;52.022;5.686;2023-05-15T00:21:51;18.40;99.90
48535;DHT22;34323;52.022;5.686;2023-05-15T00:24:17;18.30;99.90
48535;DHT22;34323;52.022;5.686;2023-05-15T00:26:42;18.30;99.90
48535;DHT22;34323;52.022;5.686;2023-05-15T00:29:08;18.30;99.90
48535;DHT22;34323;52.022;5.686;2023-05-15T00:31:33;18.40;99.90
48535;DHT22;34323;52.022;5.686;2023-05-15T00:33:59;18.40;99.90
48535;DHT22;34323;52.022;5.686;2023-05-15T00:36:25;18.50;99.90
48535;DHT22;34323;52.022;5.686;2023-05-15T00:38:51;18.50;99.90
48535;DHT22;34323;52.022;5.686;2023-05-15T00:41:17;18.60;99.90
48535;DHT22;34323;52.022;5.686;2023-05-15T00:43:43;18.70;99.90
48535;DHT22;34323;52.022;5.686;2023-05-15T00:46:09;18.80;99.90
48535;DHT22;34323;52.022;5.686;2023-05-15T00:48:38;18.40;99.90
48535;DHT22;34323;52.022;5.686;2023-05-15T00:51:04;18.00;99.90
48535;DHT22;34323;52.022;5.686;2023-05-15T00:53:29;18.00;99.90
48535;DHT22;34323;52.022;5.686;2023-05-15T00:55:57;18.00;99.90
48535;DHT22;34323;52.022;5.686;2023-05-15T00:58:23;17.80;99.90
48535;DHT22;34323;52.022;5.686;2023-05-15T01:00:52;17.80;99.90
48535;DHT22;34323;52.022;5.686;2023-05-15T01:03:18;17.90;99.90
48535;DHT22;34323;52.022;5.686;2023-05-15T01:05:43;18.00;99.90
48535;DHT22;34323;52.022;5.686;2023-05-15T01:08:25;17.90;99.90
48535;DHT22;34323;52.022;5.686;2023-05-15T01:10:51;18.00;99.90
48535;DHT22;34323;52.022;5.686;2023-05-15T01:13:19;18.00;99.90
48535;DHT22;34323;52.022;5.686;2023-05-15T01:15:46;17.90;99.90
48535;DHT22;34323;52.022;5.686;2023-05-15T01:18:12;17.70;99.90
48535;DHT22;34323;52.022;5.686;2023-05-15T01:31:53;18.30;99.90
48535;DHT22;34323;52.022;5.686;2023-05-15T01:34:22;18.30;99.90
48535;DHT22;34323;52.022;5.686;2023-05-15T01:36:54;18.30;99.90
48535;DHT22;34323;52.022;5.686;2023-05-15T01:39:22;18.30;99.90
48535;DHT22;34323;52.022;5.686;2023-05-15T01:42:02;18.20;99.90
48535;DHT22;34323;52.022;5.686;2023-05-15T01:44:30;18.10;99.90
48535;DHT22;34323;52.022;5.686;2023-05-15T01:46:59;18.00;99.90
48535;DHT22;34323;52.022;5.686;2023-05-15T01:49:26;18.00;99.90
48535;DHT22;34323;52.022;5.686;2023-05-15T01:51:58;18.00;99.90
48535;DHT22;34323;52.022;5.686;2023-05-15T01:54:27;18.10;99.90
48535;DHT22;34323;52.022;5.686;2023-05-15T01:56:54;18.20;99.90
48535;DHT22;34323;52.022;5.686;2023-05-15T01:59:22;18.10;99.90
48535;DHT22;34323;52.022;5.686;2023-05-15T02:01:49;18.10;99.90
48535;DHT22;34323;52.022;5.686;2023-05-15T02:04:17;18.10;99.90
48535;DHT22;34323;52.022;5.686;2023-05-15T02:06:43;18.20;99.90
48535;DHT22;34323;52.022;5.686;2023-05-15T02:09:09;18.20;99.90
48535;DHT22;34323;52.022;5.686;2023-05-15T02:11:36;18.10;99.90
48535;DHT22;34323;52.022;5.686;2023-05-15T02:14:02;17.90;99.90
48535;DHT22;34323;52.022;5.686;2023-05-15T02:16:29;17.80;99.90
48535;DHT22;34323;52.022;5.686;2023-05-15T02:18:54;17.80;99.90
48535;DHT22;34323;52.022;5.686;2023-05-15T02:21:20;17.80;99.90
48535;DHT22;34323;52.022;5.686;2023-05-15T02:23:46;17.70;99.90
48535;DHT22;34323;52.022;5.686;2023-05-15T02:31:46;17.70;99.90
48535;DHT22;34323;52.022;5.686;2023-05-15T02:36:46;17.70;99.90
48535;DHT22;34323;52.022;5.686;2023-05-15T02:39:14;17.60;99.90
48535;DHT22;34323;52.022;5.686;2023-05-15T02:41:41;17.70;99.90
48535;DHT22;34323;52.022;5.686;2023-05-15T02:44:07;17.70;99.90
48535;DHT22;34323;52.022;5.686;2023-05-15T02:46:34;17.60;99.90
48535;DHT22;34323;52.022;5.686;2023-05-15T02:49:01;17.40;99.90
48535;DHT22;34323;52.022;5.686;2023-05-15T02:51:26;17.20;99.90
48535;DHT22;34323;52.022;5.686;2023-05-15T02:53:54;17.20;99.90
48535;DHT22;34323;52.022;5.686;2023-05-15T02:56:19;17.30;99.90
48535;DHT22;34323;52.022;5.686;2023-05-15T02:58:45;17.40;99.90
48535;DHT22;34323;52.022;5.686;2023-05-15T03:01:11;17.50;99.90
48535;DHT22;34323;52.022;5.686;2023-05-15T03:03:36;17.60;99.90
48535;DHT22;34323;52.022;5.686;2023-05-15T03:06:02;17.60;99.90
48535;DHT22;34323;52.022;5.686;2023-05-15T03:08:28;17.60;99.90
48535;DHT22;34323;52.022;5.686;2023-05-15T03:10:53;17.50;99.90
48535;DHT22;34323;52.022;5.686;2023-05-15T03:13:19;17.60;99.90
48535;DHT22;34323;52.022;5.686;2023-05-15T03:15:45;17.60;99.90
48535;DHT22;34323;52.022;5.686;2023-05-15T03:18:10;17.70;99.90
48535;DHT22;34323;52.022;5.686;2023-05-15T03:20:36;17.70;99.90
48535;DHT22;34323;52.022;5.686;2023-05-15T03:23:01;17.60;99.90
48535;DHT22;34323;52.022;5.686;2023-05-15T03:25:27;17.60;99.90
48535;DHT22;34323;52.022;5.686;2023-05-15T03:27:53;17.40;99.90
48535;DHT22;34323;52.022;5.686;2023-05-15T03:30:18;17.10;99.90
48535;DHT22;34323;52.022;5.686;2023-05-15T03:32:44;17.20;99.90
48535;DHT22;34323;52.022;5.686;2023-05-15T03:35:09;17.20;99.90
48535;DHT22;34323;52.022;5.686;2023-05-15T03:37:35;17.20;99.90
48535;DHT22;34323;52.022;5.686;2023-05-15T03:40:00;17.30;99.90
48535;DHT22;34323;52.022;5.686;2023-05-15T03:42:26;17.10;99.90
48535;DHT22;34323;52.022;5.686;2023-05-15T03:44:52;17.10;99.90
48535;DHT22;34323;52.022;5.686;2023-05-15T03:47:18;17.40;99.90
48535;DHT22;34323;52.022;5.686;2023-05-15T03:49:44;17.60;99.90
48535;DHT22;34323;52.022;5.686;2023-05-15T03:52:10;17.90;99.90
48535;DHT22;34323;52.022;5.686;2023-05-15T03:54:36;18.10;99.90
48535;DHT22;34323;52.022;5.686;2023-05-15T03:57:02;18.00;99.90
48535;DHT22;34323;52.022;5.686;2023-05-15T03:59:29;17.80;99.90
48535;DHT22;34323;52.022;5.686;2023-05-15T04:01:54;17.80;99.90
48535;DHT22;34323;52.022;5.686;2023-05-15T04:04:20;17.80;99.90
48535;DHT22;34323;52.022;5.686;2023-05-15T04:06:45;17.60;99.90
48535;DHT22;34323;52.022;5.686;2023-05-15T04:09:11;17.30;99.90
48535;DHT22;34323;52.022;5.686;2023-05-15T04:11:36;17.40;99.90
48535;DHT22;34323;52.022;5.686;2023-05-15T04:14:02;17.40;99.90
48535;DHT22;34323;52.022;5.686;2023-05-15T04:16:27;17.50;99.90
48535;DHT22;34323;52.022;5.686;2023-05-15T04:18:53;17.70;99.90
48535;DHT22;34323;52.022;5.686;2023-05-15T04:21:18;17.80;99.90
48535;DHT22;34323;52.022;5.686;2023-05-15T04:23:44;17.80;99.90
48535;DHT22;34323;52.022;5.686;2023-05-15T04:26:09;17.80;99.90
48535;DHT22;34323;52.022;5.686;2023-05-15T04:28:35;17.70;99.90
48535;DHT22;34323;52.022;5.686;2023-05-15T04:31:01;17.80;99.90
48535;DHT22;34323;52.022;5.686;2023-05-15T04:33:26;17.90;99.90
48535;DHT22;34323;52.022;5.686;2023-05-15T04:35:52;17.50;99.90
48535;DHT22;34323;52.022;5.686;2023-05-15T04:38:18;17.00;99.90
48535;DHT22;34323;52.022;5.686;2023-05-15T04:40:44;16.80;99.90
48535;DHT22;34323;52.022;5.686;2023-05-15T04:43:10;16.70;99.90
48535;DHT22;34323;52.022;5.686;2023-05-15T04:45:35;16.80;99.90
48535;DHT22;34323;52.022;5.686;2023-05-15T04:48:01;16.90;99.90
48535;DHT22;34323;52.022;5.686;2023-05-15T04:50:27;16.70;99.90
48535;DHT22;34323;52.022;5.686;2023-05-15T04:52:52;16.70;99.90
48535;DHT22;34323;52.022;5.686;2023-05-15T04:55:18;16.70;99.90
48535;DHT22;34323;52.022;5.686;2023-05-15T04:57:45;16.70;99.90
48535;DHT22;34323;52.022;5.686;2023-05-15T05:00:11;16.70;99.90
48535;DHT22;34323;52.022;5.686;2023-05-15T05:02:38;16.70;99.90
48535;DHT22;34323;52.022;5.686;2023-05-15T05:05:05;16.60;99.90
48535;DHT22;34323;52.022;5.686;2023-05-15T05:07:32;16.80;99.90
48535;DHT22;34323;52.022;5.686;2023-05-15T05:09:58;16.60;99.90
48535;DHT22;34323;52.022;5.686;2023-05-15T05:12:23;16.20;99.90
48535;DHT22;34323;52.022;5.686;2023-05-15T05:14:49;15.80;99.90
48535;DHT22;34323;52.022;5.686;2023-05-15T05:17:14;15.90;99.90
48535;DHT22;34323;52.022;5.686;2023-05-15T05:19:40;16.30;99.90
48535;DHT22;34323;52.022;5.686;2023-05-15T05:22:06;16.40;99.90
48535;DHT22;34323;52.022;5.686;2023-05-15T05:24:32;16.50;99.90
48535;DHT22;34323;52.022;5.686;2023-05-15T05:27:00;16.80;99.90
48535;DHT22;34323;52.022;5.686;2023-05-15T05:29:25;17.00;99.90
48535;DHT22;34323;52.022;5.686;2023-05-15T05:31:51;16.90;99.90
48535;DHT22;34323;52.022;5.686;2023-05-15T05:34:18;16.90;99.90
48535;DHT22;34323;52.022;5.686;2023-05-15T05:36:43;16.90;99.90
48535;DHT22;34323;52.022;5.686;2023-05-15T05:39:09;17.10;99.90
48535;DHT22;34323;52.022;5.686;2023-05-15T05:41:35;16.90;99.90
48535;DHT22;34323;52.022;5.686;2023-05-15T05:44:00;16.90;99.90
48535;DHT22;34323;52.022;5.686;2023-05-15T05:46:26;16.80;99.90
48535;DHT22;34323;52.022;5.686;2023-05-15T05:48:51;16.90;99.90
48535;DHT22;34323;52.022;5.686;2023-05-15T05:51:17;17.00;99.90
48535;DHT22;34323;52.022;5.686;2023-05-15T05:53:42;17.00;99.90
48535;DHT22;34323;52.022;5.686;2023-05-15T05:56:08;17.20;99.90
48535;DHT22;34323;52.022;5.686;2023-05-15T05:58:34;16.80;99.90
48535;DHT22;34323;52.022;5.686;2023-05-15T06:01:00;16.70;99.90
48535;DHT22;34323;52.022;5.686;2023-05-15T06:03:26;16.60;99.90
48535;DHT22;34323;52.022;5.686;2023-05-15T06:05:52;16.70;99.90
48535;DHT22;34323;52.022;5.686;2023-05-15T06:08:18;16.90;99.90
48535;DHT22;34323;52.022;5.686;2023-05-15T06:10:44;17.20;99.90
48535;DHT22;34323;52.022;5.686;2023-05-15T06:13:09;17.30;99.90
48535;DHT22;34323;52.022;5.686;2023-05-15T06:15:36;17.20;99.90
48535;DHT22;34323;52.022;5.686;2023-05-15T06:18:02;17.50;99.90
48535;DHT22;34323;52.022;5.686;2023-05-15T06:20:28;17.40;99.90
48535;DHT22;34323;52.022;5.686;2023-05-15T06:22:53;17.40;99.90
48535;DHT22;34323;52.022;5.686;2023-05-15T06:25:19;17.50;99.90
48535;DHT22;34323;52.022;5.686;2023-05-15T06:27:45;17.60;99.90
48535;DHT22;34323;52.022;5.686;2023-05-15T06:30:12;17.70;99.90
48535;DHT22;34323;52.022;5.686;2023-05-15T06:32:38;17.70;99.90
48535;DHT22;34323;52.022;5.686;2023-05-15T06:35:04;17.60;99.90
48535;DHT22;34323;52.022;5.686;2023-05-15T06:37:30;17.60;99.90
48535;DHT22;34323;52.022;5.686;2023-05-15T06:39:56;17.40;99.90
48535;DHT22;34323;52.022;5.686;2023-05-15T06:42:21;17.40;99.90
48535;DHT22;34323;52.022;5.686;2023-05-15T06:44:47;17.40;99.90
48535;DHT22;34323;52.022;5.686;2023-05-15T06:47:14;17.50;99.90
48535;DHT22;34323;52.022;5.686;2023-05-15T06:49:40;17.50;99.90
48535;DHT22;34323;52.022;5.686;2023-05-15T06:52:05;17.30;99.90
48535;DHT22;34323;52.022;5.686;2023-05-15T06:54:31;17.30;99.90
48535;DHT22;34323;52.022;5.686;2023-05-15T06:56:56;17.50;99.90
48535;DHT22;34323;52.022;5.686;2023-05-15T06:59:22;17.40;99.90
48535;DHT22;34323;52.022;5.686;2023-05-15T07:01:48;17.40;99.90
48535;DHT22;34323;52.022;5.686;2023-05-15T07:04:13;17.60;99.90
48535;DHT22;34323;52.022;5.686;2023-05-15T07:06:39;17.80;99.90
48535;DHT22;34323;52.022;5.686;2023-05-15T07:09:04;18.10;99.90
48535;DHT22;34323;52.022;5.686;2023-05-15T07:11:30;18.20;99.90
48535;DHT22;34323;52.022;5.686;2023-05-15T07:13:57;18.30;99.90
48535;DHT22;34323;52.022;5.686;2023-05-15T07:16:23;18.40;99.90
48535;DHT22;34323;52.022;5.686;2023-05-15T07:18:49;18.00;99.90
48535;DHT22;34323;52.022;5.686;2023-05-15T07:21:14;17.80;99.90
48535;DHT22;34323;52.022;5.686;2023-05-15T07:23:40;18.00;99.90
48535;DHT22;34323;52.022;5.686;2023-05-15T07:26:05;18.10;99.90
48535;DHT22;34323;52.022;5.686;2023-05-15T07:28:31;18.20;99.90
48535;DHT22;34323;52.022;5.686;2023-05-15T07:30:57;18.50;99.90
48535;DHT22;34323;52.022;5.686;2023-05-15T07:33:22;18.40;99.90
48535;DHT22;34323;52.022;5.686;2023-05-15T07:35:49;18.40;99.90
48535;DHT22;34323;52.022;5.686;2023-05-15T07:38:15;18.00;99.90
48535;DHT22;34323;52.022;5.686;2023-05-15T07:40:40;18.10;99.90
48535;DHT22;34323;52.022;5.686;2023-05-15T07:43:07;18.10;99.90
48535;DHT22;34323;52.022;5.686;2023-05-15T07:45:33;18.20;99.90
48535;DHT22;34323;52.022;5.686;2023-05-15T07:48:15;18.40;99.90
48535;DHT22;34323;52.022;5.686;2023-05-15T07:50:41;18.60;99.90
48535;DHT22;34323;52.022;5.686;2023-05-15T07:53:07;18.60;99.90
48535;DHT22;34323;52.022;5.686;2023-05-15T07:55:32;18.70;99.90
48535;DHT22;34323;52.022;5.686;2023-05-15T07:57:58;18.70;99.90
48535;DHT22;34323;52.022;5.686;2023-05-15T08:00:23;18.90;99.90
48535;DHT22;34323;52.022;5.686;2023-05-15T08:02:49;19.10;99.90
48535;DHT22;34323;52.022;5.686;2023-05-15T08:05:14;19.20;99.90
48535;DHT22;34323;52.022;5.686;2023-05-15T08:07:41;19.20;99.90
48535;DHT22;34323;52.022;5.686;2023-05-15T08:10:06;19.30;99.90
48535;DHT22;34323;52.022;5.686;2023-05-15T08:12:32;19.50;99.90
48535;DHT22;34323;52.022;5.686;2023-05-15T08:14:58;19.50;99.90
48535;DHT22;34323;52.022;5.686;2023-05-15T08:17:24;19.70;99.90
48535;DHT22;34323;52.022;5.686;2023-05-15T08:19:50;20.00;99.90
48535;DHT22;34323;52.022;5.686;2023-05-15T08:22:15;20.10;99.90
48535;DHT22;34323;52.022;5.686;2023-05-15T08:24:41;20.30;99.90
48535;DHT22;34323;52.022;5.686;2023-05-15T08:27:07;20.50;99.90
48535;DHT22;34323;52.022;5.686;2023-05-15T08:29:36;20.60;99.90
48535;DHT22;34323;52.022;5.686;2023-05-15T08:32:02;20.70;99.90
48535;DHT22;34323;52.022;5.686;2023-05-15T08:34:29;20.70;99.90
48535;DHT22;34323;52.022;5.686;2023-05-15T08:36:55;20.80;99.90
48535;DHT22;34323;52.022;5.686;2023-05-15T08:39:21;20.80;99.90
48535;DHT22;34323;52.022;5.686;2023-05-15T08:44:16;20.70;99.90
48535;DHT22;34323;52.022;5.686;2023-05-15T08:46:42;20.80;99.90
48535;DHT22;34323;52.022;5.686;2023-05-15T08:49:19;20.90;99.90
48535;DHT22;34323;52.022;5.686;2023-05-15T08:51:47;20.90;99.90
48535;DHT22;34323;52.022;5.686;2023-05-15T08:54:14;21.00;99.90
48535;DHT22;34323;52.022;5.686;2023-05-15T08:56:40;21.00;99.90
48535;DHT22;34323;52.022;5.686;2023-05-15T08:59:06;21.30;99.90
48535;DHT22;34323;52.022;5.686;2023-05-15T09:01:32;21.60;99.90
48535;DHT22;34323;52.022;5.686;2023-05-15T09:03:58;21.90;99.90
48535;DHT22;34323;52.022;5.686;2023-05-15T09:06:24;22.00;99.90
48535;DHT22;34323;52.022;5.686;2023-05-15T09:08:51;21.90;99.90
48535;DHT22;34323;52.022;5.686;2023-05-15T09:11:23;21.70;99.90
48535;DHT22;34323;52.022;5.686;2023-05-15T09:13:48;21.70;99.90
48535;DHT22;34323;52.022;5.686;2023-05-15T09:16:14;22.00;99.90
48535;DHT22;34323;52.022;5.686;2023-05-15T09:18:40;21.80;99.90
48535;DHT22;34323;52.022;5.686;2023-05-15T09:21:35;21.80;99.90
48535;DHT22;34323;52.022;5.686;2023-05-15T09:26:44;21.80;99.90
48535;DHT22;34323;52.022;5.686;2023-05-15T09:29:10;22.00;99.90
48535;DHT22;34323;52.022;5.686;2023-05-15T09:31:36;22.30;99.90
48535;DHT22;34323;52.022;5.686;2023-05-15T09:34:02;22.20;99.90
48535;DHT22;34323;52.022;5.686;2023-05-15T09:36:30;22.50;99.90
48535;DHT22;34323;52.022;5.686;2023-05-15T09:38:58;22.50;99.90
48535;DHT22;34323;52.022;5.686;2023-05-15T09:41:25;22.50;99.90
48535;DHT22;34323;52.022;5.686;2023-05-15T09:43:54;22.40;99.90
48535;DHT22;34323;52.022;5.686;2023-05-15T09:46:21;22.20;99.90
48535;DHT22;34323;52.022;5.686;2023-05-15T09:48:47;22.10;99.90
48535;DHT22;34323;52.022;5.686;2023-05-15T09:51:17;22.20;99.90
48535;DHT22;34323;52.022;5.686;2023-05-15T09:53:48;22.10;99.90
48535;DHT22;34323;52.022;5.686;2023-05-15T09:56:15;21.80;99.90
48535;DHT22;34323;52.022;5.686;2023-05-15T09:58:54;21.70;99.90
48535;DHT22;34323;52.022;5.686;2023-05-15T10:01:23;21.80;99.90
48535;DHT22;34323;52.022;5.686;2023-05-15T10:03:57;22.10;99.90
48535;DHT22;34323;52.022;5.686;2023-05-15T10:06:23;22.40;99.90
48535;DHT22;34323;52.022;5.686;2023-05-15T10:08:52;22.40;99.90
48535;DHT22;34323;52.022;5.686;2023-05-15T10:11:19;22.40;99.90
48535;DHT22;34323;52.022;5.686;2023-05-15T10:13:46;22.10;99.90
48535;DHT22;34323;52.022;5.686;2023-05-15T10:16:12;22.10;99.90
48535;DHT22;34323;52.022;5.686;2023-05-15T10:18:39;22.00;99.90
48535;DHT22;34323;52.022;5.686;2023-05-15T10:21:08;22.10;99.90
48535;DHT22;34323;52.022;5.686;2023-05-15T10:23:40;22.40;99.90
48535;DHT22;34323;52.022;5.686;2023-05-15T10:26:13;22.40;99.90
48535;DHT22;34323;52.022;5.686;2023-05-15T10:28:40;22.40;99.90
48535;DHT22;34323;52.022;5.686;2023-05-15T10:31:06;22.40;99.90
48535;DHT22;34323;52.022;5.686;2023-05-15T10:33:34;22.30;99.90
48535;DHT22;34323;52.022;5.686;2023-05-15T10:36:00;22.20;99.90
48535;DHT22;34323;52.022;5.686;2023-05-15T10:38:28;22.40;99.90
48535;DHT22;34323;52.022;5.686;2023-05-15T10:40:54;22.50;99.90
48535;DHT22;34323;52.022;5.686;2023-05-15T10:43:22;22.20;99.90
48535;DHT22;34323;52.022;5.686;2023-05-15T10:45:49;22.00;99.90
48535;DHT22;34323;52.022;5.686;2023-05-15T10:48:16;22.20;99.90
48535;DHT22;34323;52.022;5.686;2023-05-15T10:50:42;22.20;99.90
48535;DHT22;34323;52.022;5.686;2023-05-15T10:53:11;22.50;99.90
48535;DHT22;34323;52.022;5.686;2023-05-15T10:55:37;22.80;99.90
48535;DHT22;34323;52.022;5.686;2023-05-15T10:58:08;23.00;99.90
48535;DHT22;34323;52.022;5.686;2023-05-15T11:00:40;22.90;99.90
48535;DHT22;34323;52.022;5.686;2023-05-15T11:03:07;22.60;99.90
48535;DHT22;34323;52.022;5.686;2023-05-15T11:06:11;22.50;99.90
48535;DHT22;34323;52.022;5.686;2023-05-15T11:08:41;22.50;99.90
48535;DHT22;34323;52.022;5.686;2023-05-15T11:12:15;22.10;99.90
48535;DHT22;34323;52.022;5.686;2023-05-15T11:14:16;22.10;99.90
48535;DHT22;34323;52.022;5.686;2023-05-15T11:24:30;22.20;99.90
48535;DHT22;34323;52.022;5.686;2023-05-15T11:27:00;22.20;99.90
48535;DHT22;34323;52.022;5.686;2023-05-15T11:29:26;21.90;99.90
48535;DHT22;34323;52.022;5.686;2023-05-15T11:31:52;21.40;99.90
48535;DHT22;34323;52.022;5.686;2023-05-15T11:34:33;21.60;99.90
48535;DHT22;34323;52.022;5.686;2023-05-15T11:36:59;21.70;99.90
48535;DHT22;34323;52.022;5.686;2023-05-15T11:39:26;21.60;99.90
48535;DHT22;34323;52.022;5.686;2023-05-15T11:41:53;21.30;99.90
48535;DHT22;34323;52.022;5.686;2023-05-15T11:44:20;21.10;99.90
48535;DHT22;34323;52.022;5.686;2023-05-15T11:46:46;21.10;99.90
48535;DHT22;34323;52.022;5.686;2023-05-15T11:49:12;21.20;99.90
48535;DHT22;34323;52.022;5.686;2023-05-15T11:51:37;21.30;99.90
48535;DHT22;34323;52.022;5.686;2023-05-15T11:54:09;21.50;99.90
48535;DHT22;34323;52.022;5.686;2023-05-15T11:56:42;21.80;99.90
48535;DHT22;34323;52.022;5.686;2023-05-15T11:59:12;21.70;99.90
48535;DHT22;34323;52.022;5.686;2023-05-15T12:01:41;21.70;99.90
48535;DHT22;34323;52.022;5.686;2023-05-15T12:04:12;21.50;99.90
48535;DHT22;34323;52.022;5.686;2023-05-15T12:06:38;21.50;99.90
48535;DHT22;34323;52.022;5.686;2023-05-15T12:09:04;21.50;99.90
48535;DHT22;34323;52.022;5.686;2023-05-15T12:11:30;21.60;99.90
48535;DHT22;34323;52.022;5.686;2023-05-15T12:13:56;21.40;99.90
48535;DHT22;34323;52.022;5.686;2023-05-15T12:16:25;21.50;99.90
48535;DHT22;34323;52.022;5.686;2023-05-15T12:18:51;21.40;99.90
48535;DHT22;34323;52.022;5.686;2023-05-15T12:21:17;21.30;99.90
48535;DHT22;34323;52.022;5.686;2023-05-15T12:23:52;21.40;99.90
48535;DHT22;34323;52.022;5.686;2023-05-15T12:26:19;21.20;99.90
48535;DHT22;34323;52.022;5.686;2023-05-15T12:28:46;21.30;99.90
48535;DHT22;34323;52.022;5.686;2023-05-15T12:31:13;21.40;99.90
48535;DHT22;34323;52.022;5.686;2023-05-15T12:33:38;21.20;99.90
48535;DHT22;34323;52.022;5.686;2023-05-15T12:36:05;21.20;99.90
48535;DHT22;34323;52.022;5.686;2023-05-15T12:38:30;21.30;99.90
48535;DHT22;34323;52.022;5.686;2023-05-15T12:40:59;21.40;99.90
48535;DHT22;34323;52.022;5.686;2023-05-15T12:43:25;21.30;99.90
48535;DHT22;34323;52.022;5.686;2023-05-15T12:45:52;21.20;99.90
48535;DHT22;34323;52.022;5.686;2023-05-15T12:48:18;21.30;99.90
48535;DHT22;34323;52.022;5.686;2023-05-15T12:50:44;21.20;99.90
48535;DHT22;34323;52.022;5.686;2023-05-15T12:53:12;21.20;99.90
48535;DHT22;34323;52.022;5.686;2023-05-15T12:55:38;21.20;99.90
48535;DHT22;34323;52.022;5.686;2023-05-15T12:58:06;20.90;99.90
48535;DHT22;34323;52.022;5.686;2023-05-15T13:00:34;21.10;99.90
48535;DHT22;34323;52.022;5.686;2023-05-15T13:03:00;21.30;99.90
48535;DHT22;34323;52.022;5.686;2023-05-15T13:05:36;21.60;99.90
48535;DHT22;34323;52.022;5.686;2023-05-15T13:08:03;21.90;99.90
48535;DHT22;34323;52.022;5.686;2023-05-15T13:10:31;21.90;99.90
48535;DHT22;34323;52.022;5.686;2023-05-15T13:12:57;22.30;99.90
48535;DHT22;34323;52.022;5.686;2023-05-15T13:15:30;22.60;99.90
48535;DHT22;34323;52.022;5.686;2023-05-15T13:20:21;23.20;99.90
48535;DHT22;34323;52.022;5.686;2023-05-15T13:22:48;23.20;99.90
48535;DHT22;34323;52.022;5.686;2023-05-15T13:25:17;22.80;99.90
48535;DHT22;34323;52.022;5.686;2023-05-15T13:27:43;22.70;99.90
48535;DHT22;34323;52.022;5.686;2023-05-15T13:30:09;22.50;99.90
48535;DHT22;34323;52.022;5.686;2023-05-15T13:32:35;22.70;99.90
48535;DHT22;34323;52.022;5.686;2023-05-15T13:35:01;23.10;99.90
48535;DHT22;34323;52.022;5.686;2023-05-15T13:37:27;23.00;99.90
48535;DHT22;34323;52.022;5.686;2023-05-15T13:39:52;23.10;99.90
48535;DHT22;34323;52.022;5.686;2023-05-15T13:42:18;23.00;99.90
48535;DHT22;34323;52.022;5.686;2023-05-15T13:44:44;23.00;99.90
48535;DHT22;34323;52.022;5.686;2023-05-15T13:47:09;23.10;99.90
48535;DHT22;34323;52.022;5.686;2023-05-15T13:49:35;23.30;99.90
48535;DHT22;34323;52.022;5.686;2023-05-15T13:52:00;23.40;99.90
48535;DHT22;34323;52.022;5.686;2023-05-15T13:54:26;23.40;99.90
48535;DHT22;34323;52.022;5.686;2023-05-15T13:56:51;23.50;99.90
48535;DHT22;34323;52.022;5.686;2023-05-15T13:59:17;23.80;99.90
48535;DHT22;34323;52.022;5.686;2023-05-15T14:01:43;24.10;99.90
48535;DHT22;34323;52.022;5.686;2023-05-15T14:04:09;24.50;99.90
48535;DHT22;34323;52.022;5.686;2023-05-15T14:06:34;25.00;99.90
48535;DHT22;34323;52.022;5.686;2023-05-15T14:09:00;24.90;99.90
48535;DHT22;34323;52.022;5.686;2023-05-15T14:11:25;24.80;99.90
48535;DHT22;34323;52.022;5.686;2023-05-15T14:13:51;24.80;99.90
48535;DHT22;34323;52.022;5.686;2023-05-15T14:16:16;25.70;99.90
48535;DHT22;34323;52.022;5.686;2023-05-15T14:18:42;26.70;99.90
48535;DHT22;34323;52.022;5.686;2023-05-15T14:21:07;26.70;99.90
48535;DHT22;34323;52.022;5.686;2023-05-15T14:23:33;26.40;99.90
48535;DHT22;34323;52.022;5.686;2023-05-15T14:25:58;25.80;99.90
48535;DHT22;34323;52.022;5.686;2023-05-15T14:28:24;24.80;99.90
48535;DHT22;34323;52.022;5.686;2023-05-15T14:30:50;24.20;99.90
48535;DHT22;34323;52.022;5.686;2023-05-15T14:33:15;23.50;99.90
48535;DHT22;34323;52.022;5.686;2023-05-15T14:35:41;22.80;99.90
48535;DHT22;34323;52.022;5.686;2023-05-15T14:38:06;22.30;99.90
48535;DHT22;34323;52.022;5.686;2023-05-15T14:40:32;22.10;99.90
48535;DHT22;34323;52.022;5.686;2023-05-15T14:42:58;22.20;99.90
48535;DHT22;34323;52.022;5.686;2023-05-15T14:45:23;22.30;99.90
48535;DHT22;34323;52.022;5.686;2023-05-15T14:47:49;22.40;99.90
48535;DHT22;34323;52.022;5.686;2023-05-15T14:50:14;22.10;99.90
48535;DHT22;34323;52.022;5.686;2023-05-15T14:52:40;22.20;99.90
48535;DHT22;34323;52.022;5.686;2023-05-15T14:55:06;22.20;99.90
48535;DHT22;34323;52.022;5.686;2023-05-15T14:57:32;22.00;99.90
48535;DHT22;34323;52.022;5.686;2023-05-15T14:59:57;21.80;99.90
48535;DHT22;34323;52.022;5.686;2023-05-15T15:02:23;21.70;99.90
48535;DHT22;34323;52.022;5.686;2023-05-15T15:04:48;21.50;99.90
48535;DHT22;34323;52.022;5.686;2023-05-15T15:07:14;21.30;99.90
48535;DHT22;34323;52.022;5.686;2023-05-15T15:09:39;21.30;99.90
48535;DHT22;34323;52.022;5.686;2023-05-15T15:12:05;21.50;99.90
48535;DHT22;34323;52.022;5.686;2023-05-15T15:14:31;21.50;99.90
48535;DHT22;34323;52.022;5.686;2023-05-15T15:16:57;21.50;99.90
48535;DHT22;34323;52.022;5.686;2023-05-15T15:19:22;21.30;99.90
48535;DHT22;34323;52.022;5.686;2023-05-15T15:21:48;21.30;99.90
48535;DHT22;34323;52.022;5.686;2023-05-15T15:24:14;21.10;99.90
48535;DHT22;34323;52.022;5.686;2023-05-15T15:26:39;21.20;99.90
48535;DHT22;34323;52.022;5.686;2023-05-15T15:29:05;21.00;99.90
48535;DHT22;34323;52.022;5.686;2023-05-15T15:31:31;20.60;99.90
48535;DHT22;34323;52.022;5.686;2023-05-15T15:33:57;20.50;99.90
48535;DHT22;34323;52.022;5.686;2023-05-15T15:36:23;20.30;99.90
48535;DHT22;34323;52.022;5.686;2023-05-15T15:38:49;20.40;99.90
48535;DHT22;34323;52.022;5.686;2023-05-15T15:41:14;20.40;99.90
48535;DHT22;34323;52.022;5.686;2023-05-15T15:43:40;20.40;99.90
48535;DHT22;34323;52.022;5.686;2023-05-15T15:46:06;20.30;99.90
48535;DHT22;34323;52.022;5.686;2023-05-15T15:48:31;20.30;99.90
48535;DHT22;34323;52.022;5.686;2023-05-15T15:50:57;20.40;99.90
48535;DHT22;34323;52.022;5.686;2023-05-15T15:53:23;20.40;99.90
48535;DHT22;34323;52.022;5.686;2023-05-15T15:55:48;20.30;99.90
48535;DHT22;34323;52.022;5.686;2023-05-15T15:58:14;20.30;99.90
48535;DHT22;34323;52.022;5.686;2023-05-15T16:00:39;20.20;99.90